Christine Anderson — WCN2606 — position and weather

sailwx.info

Track history (hours):
 
Tides and Currents Weather Stations Pressure Air Temp Water Temp Dewpoint Dewpoint Depression Visibility Wind Speed Wind Dir Waves Ship Positions

Christine Anderson

Owner: PIERCE, COUNTY OF, TACOMA, WA. More information available from US FCC via Universal Licensing System and Coast Guard Vessel Documentation Center.

Last reported at 2017-Dec-16 20:18 UTC. Time now 2017-Dec-16 20:46 UTC.
Position N 47°11' W 122°41'.

Length 60 m; draft 3 m.

Type: Passenger vessel. MMSI: 366659730.

Date/timePositionNaut miles runAvg speedWind from/ knotsBaromVisibWave heightAir tempDewpointWater temp
2017-Dec-16 20:18N 47°11' W 122°41'310.2
2017-Dec-16 20:00N 47°10' W 122°36'0 0.0
2017-Dec-16 19:30N 47°10' W 122°36'0 0.0
2017-Dec-16 19:00N 47°10' W 122°36'3 4.3
2017-Dec-16 18:18N 47°11' W 122°41'310.4
2017-Dec-16 18:00N 47°10' W 122°36'3 5.9
2017-Dec-16 17:29N 47°11' W 122°41'3 6.2
2017-Dec-16 17:00N 47°11' W 122°36'3 5.7
2017-Dec-16 16:30N 47°11' W 122°40'3 6.0
2017-Dec-16 16:00N 47°10' W 122°36'3 3.2
2017-Dec-16 15:10N 47°11' W 122°40'2 9.9
2017-Dec-16 14:59N 47°10' W 122°38'1 2.5
2017-Dec-16 14:30N 47°11' W 122°36'3 5.4
2017-Dec-16 14:00N 47°11' W 122°40'3 5.6
2017-Dec-16 13:30N 47°10' W 122°36'0 0.0
2017-Dec-16 07:05N 47°10' W 122°36'0 2.0
2017-Dec-16 07:00N 47°11' W 122°36'3 3.9
2017-Dec-16 06:15N 47°11' W 122°40'310.7
2017-Dec-16 05:59N 47°10' W 122°36'0 0.0
2017-Dec-16 05:30N 47°10' W 122°36'2 3.0
2017-Dec-16 04:57N 47°11' W 122°39'1 1.7
2017-Dec-16 04:31N 47°11' W 122°38'0 0.7
2017-Dec-16 04:00N 47°11' W 122°37'1 2.0
2017-Dec-16 03:30N 47°10' W 122°38'2 3.7
2017-Dec-16 02:56N 47°11' W 122°40'3 6.9
2017-Dec-16 02:30N 47°10' W 122°36'3 5.8
2017-Dec-16 02:00N 47°11' W 122°40'3 5.9
2017-Dec-16 01:30N 47°10' W 122°36'1 2.2
2017-Dec-16 01:00N 47°11' W 122°38'0 0.7
2017-Dec-16 00:30N 47°11' W 122°38'0 0.1
2017-Dec-16 00:00N 47°11' W 122°38'0 0.3
2017-Dec-15 23:30N 47°11' W 122°38'2 2.0
2017-Dec-15 22:38N 47°11' W 122°41'1 9.4
2017-Dec-15 22:29N 47°11' W 122°39'2 3.4
2017-Dec-15 22:00N 47°10' W 122°36'0 0.0
2017-Dec-15 21:31N 47°10' W 122°36'1 2.1
2017-Dec-15 20:56N 47°10' W 122°38'2 4.2
2017-Dec-15 20:24N 47°11' W 122°41'3 7.8
2017-Dec-15 20:00N 47°10' W 122°36'0 0.1
2017-Dec-15 19:30N 47°10' W 122°36'0 0.0
2017-Dec-15 19:01N 47°10' W 122°36'3 5.8
2017-Dec-15 18:31N 47°11' W 122°40'3 5.8
2017-Dec-15 18:01N 47°10' W 122°36'3 4.9
2017-Dec-15 17:24N 47°11' W 122°41'3 7.9
2017-Dec-15 17:01N 47°11' W 122°36'3 4.9
2017-Dec-15 16:24N 47°11' W 122°41'3 7.6
2017-Dec-15 16:00N 47°10' W 122°36'3 6.0
2017-Dec-15 15:31N 47°11' W 122°40'2 4.1
2017-Dec-15 14:59N 47°10' W 122°38'1 3.0
2017-Dec-15 14:30N 47°11' W 122°36'3 5.2
2017-Dec-15 14:00N 47°11' W 122°40'3 5.0
2017-Dec-15 13:30N 47°11' W 122°36'3 5.2
2017-Dec-15 13:01N 47°11' W 122°40'3 5.1
2017-Dec-15 12:29N 47°10' W 122°36'0 0.0
2017-Dec-15 05:29N 47°10' W 122°36'3 5.7
2017-Dec-15 04:58N 47°11' W 122°40'3 6.4
2017-Dec-15 04:30N 47°10' W 122°36'3 6.0
2017-Dec-15 04:00N 47°11' W 122°41'3 2.0
2017-Dec-15 02:30N 47°10' W 122°36'1 0.6
2017-Dec-15 01:00N 47°11' W 122°38'1 1.3
2017-Dec-15 00:29N 47°11' W 122°39'1 0.2
2017-Dec-14 18:23N 47°11' W 122°40'3 7.8
2017-Dec-14 18:00N 47°10' W 122°36'3 4.7
2017-Dec-14 17:22N 47°11' W 122°41'3 8.4
2017-Dec-14 17:00N 47°10' W 122°36'3 4.5
2017-Dec-14 16:21N 47°11' W 122°41'3 8.9
2017-Dec-14 16:00N 47°10' W 122°36'1 1.2
2017-Dec-14 14:59N 47°10' W 122°38'1 2.8
2017-Dec-14 14:30N 47°11' W 122°36'3 5.2
2017-Dec-14 14:00N 47°11' W 122°40'3 5.2
2017-Dec-14 13:30N 47°11' W 122°36'3 5.1
2017-Dec-14 13:00N 47°11' W 122°40'3 5.3
2017-Dec-14 12:30N 47°10' W 122°36'0 0.0
2017-Dec-14 05:33N 47°10' W 122°36'0 0.0
2017-Dec-14 05:30N 47°10' W 122°36'3 5.8
2017-Dec-14 05:00N 47°11' W 122°40'3 5.9
2017-Dec-14 04:30N 47°10' W 122°36'3 5.8
2017-Dec-14 03:59N 47°11' W 122°40'2 4.5
2017-Dec-14 03:29N 47°10' W 122°38'2 4.6
2017-Dec-14 03:00N 47°11' W 122°41'3 6.2
2017-Dec-14 02:30N 47°10' W 122°36'3 6.0
2017-Dec-14 02:00N 47°11' W 122°41'3 6.1
2017-Dec-14 01:30N 47°10' W 122°36'2 4.2
2017-Dec-14 01:00N 47°11' W 122°39'2 3.5
2017-Dec-14 00:28N 47°11' W 122°36'1 2.9
2017-Dec-14 00:00N 47°11' W 122°38'0 1.0
2017-Dec-13 23:30N 47°11' W 122°38'0 0.1
2017-Dec-13 23:00N 47°11' W 122°38'0 1.0
2017-Dec-13 22:30N 47°11' W 122°39'2 3.4
2017-Dec-13 22:00N 47°10' W 122°36'0 0.0
2017-Dec-13 21:30N 47°10' W 122°36'1 2.3
2017-Dec-13 21:00N 47°10' W 122°38'2 3.4
2017-Dec-13 20:19N 47°11' W 122°41'3 9.9
2017-Dec-13 20:00N 47°10' W 122°36'0 0.1
2017-Dec-13 19:30N 47°10' W 122°36'0 0.0
2017-Dec-13 19:00N 47°10' W 122°36'3 4.8
2017-Dec-13 18:24N 47°11' W 122°40'3 7.7
2017-Dec-13 18:00N 47°10' W 122°36'3 4.7
2017-Dec-13 17:23N 47°11' W 122°40'3 7.8
2017-Dec-13 17:00N 47°10' W 122°36'3 4.7
2017-Dec-13 16:23N 47°11' W 122°40'3 7.9
2017-Dec-13 16:00N 47°10' W 122°36'3 4.7
2017-Dec-13 15:22N 47°11' W 122°41'2 5.9
2017-Dec-13 14:59N 47°10' W 122°38'1 2.8
2017-Dec-13 14:30N 47°11' W 122°36'3 5.1
2017-Dec-13 14:00N 47°11' W 122°40'2 3.6
2017-Dec-13 13:28N 47°11' W 122°37'2 4.2
2017-Dec-13 13:00N 47°11' W 122°40'3 5.3
2017-Dec-13 12:30N 47°10' W 122°36'0 0.0
2017-Dec-13 05:34N 47°10' W 122°36'0 0.0
2017-Dec-13 05:30N 47°10' W 122°36'3 5.5
2017-Dec-13 04:58N 47°11' W 122°40'3 5.8
2017-Dec-13 04:29N 47°11' W 122°36'1 1.9
2017-Dec-13 03:55N 47°11' W 122°38'1 2.3
2017-Dec-13 03:30N 47°10' W 122°38'2 4.1
2017-Dec-13 02:59N 47°11' W 122°41'3 6.4
2017-Dec-13 02:30N 47°10' W 122°36'3 5.6
2017-Dec-13 01:58N 47°11' W 122°41'3 6.6
2017-Dec-13 01:30N 47°10' W 122°36'2 5.0
2017-Dec-13 01:00N 47°11' W 122°40'2 3.9
2017-Dec-13 00:30N 47°11' W 122°37'1 2.1
2017-Dec-13 00:00N 47°11' W 122°38'1 1.2
2017-Dec-12 23:29N 47°11' W 122°38'0 1.0
2017-Dec-12 23:00N 47°11' W 122°38'0 0.3
2017-Dec-12 22:29N 47°11' W 122°38'1 2.6
2017-Dec-12 22:00N 47°10' W 122°36'0 0.0
2017-Dec-12 21:30N 47°10' W 122°36'1 1.9
2017-Dec-12 20:56N 47°10' W 122°38'2 3.8
2017-Dec-12 20:19N 47°11' W 122°41'3 9.8
2017-Dec-12 20:00N 47°10' W 122°36'0 0.1
2017-Dec-12 19:30N 47°10' W 122°36'0 0.0
2017-Dec-12 19:00N 47°10' W 122°36'3 6.0
2017-Dec-12 18:30N 47°11' W 122°41'3 6.1
2017-Dec-12 18:00N 47°10' W 122°36'3 4.9
2017-Dec-12 17:23N 47°11' W 122°41'3 7.9
2017-Dec-12 17:00N 47°10' W 122°36'3 4.5
2017-Dec-12 16:21N 47°11' W 122°41'3 8.8
2017-Dec-12 16:00N 47°10' W 122°36'3 5.8
2017-Dec-12 15:29N 47°11' W 122°41'2 4.6
2017-Dec-12 15:00N 47°10' W 122°38'1 2.4
2017-Dec-12 14:30N 47°11' W 122°37'2 4.8
2017-Dec-12 14:00N 47°11' W 122°40'3 5.1
2017-Dec-12 13:30N 47°11' W 122°36'3 4.9
2017-Dec-12 13:00N 47°11' W 122°40'3 5.5
2017-Dec-12 12:30N 47°10' W 122°36'0 0.0
2017-Dec-12 05:32N 47°10' W 122°36'0 0.0
2017-Dec-12 05:30N 47°10' W 122°36'3 5.8
2017-Dec-12 05:00N 47°11' W 122°40'3 5.9
2017-Dec-12 04:30N 47°10' W 122°36'2 4.9
2017-Dec-12 04:00N 47°11' W 122°40'2 3.5
2017-Dec-12 03:30N 47°10' W 122°38'2 4.3
2017-Dec-12 02:59N 47°11' W 122°41'3 6.2
2017-Dec-12 02:30N 47°10' W 122°36'3 6.0
2017-Dec-12 02:00N 47°11' W 122°41'3 6.2
2017-Dec-12 01:30N 47°10' W 122°36'1 2.8
2017-Dec-12 01:00N 47°11' W 122°38'0 0.4
2017-Dec-12 00:30N 47°11' W 122°39'1 1.3
2017-Dec-12 00:00N 47°11' W 122°38'1 1.3
2017-Dec-11 23:30N 47°11' W 122°39'1 1.4
2017-Dec-11 23:00N 47°11' W 122°38'1 1.4
2017-Dec-11 22:30N 47°11' W 122°39'2 3.4
2017-Dec-11 22:00N 47°10' W 122°36'0 0.0
2017-Dec-11 21:30N 47°10' W 122°36'1 1.6
2017-Dec-11 20:59N 47°10' W 122°37'2 5.0
2017-Dec-11 20:30N 47°11' W 122°41'3 6.1
2017-Dec-11 20:00N 47°10' W 122°36'0 0.0
2017-Dec-11 19:30N 47°10' W 122°36'0 0.0
2017-Dec-11 19:00N 47°10' W 122°36'3 5.7
2017-Dec-11 18:28N 47°11' W 122°41'3 6.5
2017-Dec-11 18:00N 47°10' W 122°36'3 4.1
2017-Dec-11 17:18N 47°11' W 122°40'310.0
2017-Dec-11 17:00N 47°10' W 122°36'3 6.0
2017-Dec-11 16:30N 47°11' W 122°41'3 6.1
2017-Dec-11 16:00N 47°10' W 122°36'3 4.7
2017-Dec-11 15:22N 47°11' W 122°41'2 6.0
2017-Dec-11 15:00N 47°10' W 122°38'1 2.6
2017-Dec-11 14:29N 47°11' W 122°37'2 4.8
2017-Dec-11 14:00N 47°11' W 122°40'2 4.1
2017-Dec-11 13:30N 47°11' W 122°37'1 1.4
2017-Dec-11 13:00N 47°11' W 122°38'1 3.1
2017-Dec-11 12:30N 47°10' W 122°36'0 0.0
2017-Dec-11 05:31N 47°10' W 122°36'0 0.0
2017-Dec-11 05:30N 47°10' W 122°36'3 5.4
2017-Dec-11 04:57N 47°11' W 122°41'3 6.8
2017-Dec-11 04:30N 47°10' W 122°36'3 5.7
2017-Dec-11 03:59N 47°11' W 122°41'3 6.4
2017-Dec-11 03:30N 47°10' W 122°36'3 6.1
2017-Dec-11 03:00N 47°11' W 122°41'3 6.1
2017-Dec-11 02:31N 47°10' W 122°36'3 5.8
2017-Dec-11 02:00N 47°11' W 122°40'3 5.7
2017-Dec-11 01:30N 47°10' W 122°36'1 2.1
2017-Dec-11 01:00N 47°11' W 122°38'1 1.6
2017-Dec-11 00:30N 47°11' W 122°39'1 1.7
2017-Dec-11 00:00N 47°11' W 122°38'1 1.1
2017-Dec-10 23:29N 47°11' W 122°38'0 0.7
2017-Dec-10 22:59N 47°11' W 122°38'1 1.2
2017-Dec-10 22:30N 47°11' W 122°39'2 3.6
2017-Dec-10 22:00N 47°10' W 122°36'0 0.0
2017-Dec-10 21:30N 47°10' W 122°36'0 0.6
2017-Dec-10 21:00N 47°11' W 122°37'3 3.7
2017-Dec-10 20:17N 47°11' W 122°41'310.6
2017-Dec-10 20:00N 47°10' W 122°36'0 0.0
2017-Dec-10 19:30N 47°10' W 122°36'0 0.0
2017-Dec-10 19:00N 47°10' W 122°36'3 5.8
2017-Dec-10 18:30N 47°11' W 122°40'3 5.8
2017-Dec-10 18:01N 47°11' W 122°36'3 4.2
2017-Dec-10 17:17N 47°11' W 122°41'311.1
2017-Dec-10 17:00N 47°11' W 122°36'3 5.9
2017-Dec-10 16:30N 47°11' W 122°41'3 6.1
2017-Dec-10 16:00N 47°11' W 122°36'3 5.8
2017-Dec-10 15:30N 47°11' W 122°40'2 4.2
2017-Dec-10 15:00N 47°10' W 122°38'1 2.3
2017-Dec-10 14:30N 47°10' W 122°36'0 0.0
2017-Dec-10 07:07N 47°10' W 122°36'0 3.0
2017-Dec-10 07:00N 47°11' W 122°36'3 3.9
2017-Dec-10 06:19N 47°11' W 122°40'3 8.9
2017-Dec-10 06:00N 47°10' W 122°36'0 0.0
2017-Dec-10 05:30N 47°10' W 122°36'3 5.8
2017-Dec-10 04:59N 47°11' W 122°41'3 6.2
2017-Dec-10 04:30N 47°11' W 122°36'2 3.2
2017-Dec-10 04:00N 47°11' W 122°39'1 2.5
2017-Dec-10 03:30N 47°10' W 122°38'2 4.3
2017-Dec-10 03:00N 47°11' W 122°41'3 6.1
2017-Dec-10 02:30N 47°10' W 122°36'3 5.8
2017-Dec-10 02:00N 47°11' W 122°40'3 5.7
2017-Dec-10 01:30N 47°10' W 122°36'1 2.4
2017-Dec-10 00:58N 47°11' W 122°38'0 0.8
2017-Dec-10 00:30N 47°11' W 122°38'1 1.1
2017-Dec-09 23:59N 47°11' W 122°39'1 2.5
2017-Dec-09 23:30N 47°11' W 122°37'1 1.2
2017-Dec-09 23:00N 47°11' W 122°38'0 0.7
2017-Dec-09 22:30N 47°11' W 122°39'2 3.6
2017-Dec-09 22:00N 47°10' W 122°36'0 0.0
2017-Dec-09 21:30N 47°10' W 122°36'1 1.5
2017-Dec-09 21:00N 47°10' W 122°37'2 4.9
2017-Dec-09 20:30N 47°11' W 122°41'3 5.9
2017-Dec-09 20:00N 47°10' W 122°36'0 0.1
2017-Dec-09 19:30N 47°10' W 122°36'0 0.0
2017-Dec-09 19:00N 47°10' W 122°36'3 5.9
2017-Dec-09 18:30N 47°11' W 122°40'3 5.9
2017-Dec-09 18:00N 47°10' W 122°36'3 5.9
2017-Dec-09 17:30N 47°11' W 122°40'3 5.9
2017-Dec-09 17:00N 47°10' W 122°36'3 5.9
2017-Dec-09 16:30N 47°11' W 122°41'3 6.0
2017-Dec-09 16:00N 47°10' W 122°36'3 6.0
2017-Dec-09 15:30N 47°11' W 122°40'2 4.4
2017-Dec-09 15:00N 47°10' W 122°38'1 2.4
2017-Dec-09 14:30N 47°10' W 122°36'3 5.9
2017-Dec-09 14:00N 47°11' W 122°40'3 5.9
2017-Dec-09 13:30N 47°10' W 122°36'0 0.0
2017-Dec-09 07:11N 47°10' W 122°36'1 4.1
2017-Dec-09 06:59N 47°10' W 122°37'2 4.8
2017-Dec-09 06:30N 47°11' W 122°40'3 5.8
2017-Dec-09 06:00N 47°11' W 122°36'1 1.0
2017-Dec-09 05:28N 47°11' W 122°37'1 2.0
2017-Dec-09 05:00N 47°11' W 122°38'1 1.3
2017-Dec-09 04:30N 47°11' W 122°38'1 1.8
2017-Dec-09 04:00N 47°11' W 122°37'1 2.1
2017-Dec-09 03:30N 47°10' W 122°38'2 4.3
2017-Dec-09 02:59N 47°11' W 122°41'3 6.3
2017-Dec-09 02:30N 47°10' W 122°36'3 5.7
2017-Dec-09 02:00N 47°11' W 122°40'3 5.7
2017-Dec-09 01:30N 47°11' W 122°36'1 2.6
2017-Dec-09 01:01N 47°11' W 122°38'1 1.2
2017-Dec-09 00:30N 47°11' W 122°38'0 0.7
2017-Dec-08 23:59N 47°11' W 122°39'1 1.8
2017-Dec-08 23:30N 47°11' W 122°38'0 0.5
2017-Dec-08 23:00N 47°11' W 122°38'1 1.2
2017-Dec-08 22:30N 47°11' W 122°39'2 3.5
2017-Dec-08 22:00N 47°10' W 122°36'0 0.0
2017-Dec-08 21:30N 47°10' W 122°36'1 1.9
2017-Dec-08 20:57N 47°10' W 122°38'2 3.9
2017-Dec-08 20:21N 47°11' W 122°41'3 8.4
2017-Dec-08 19:59N 47°10' W 122°36'0 0.0
2017-Dec-08 19:30N 47°10' W 122°36'0 0.0
2017-Dec-08 19:00N 47°10' W 122°36'3 5.9
2017-Dec-08 18:30N 47°11' W 122°41'3 6.2
2017-Dec-08 18:01N 47°10' W 122°36'3 5.8
2017-Dec-08 17:29N 47°11' W 122°41'3 6.3
2017-Dec-08 17:00N 47°10' W 122°36'3 5.6
2017-Dec-08 16:28N 47°11' W 122°41'3 6.6
2017-Dec-08 16:00N 47°10' W 122°36'3 6.0
2017-Dec-08 15:30N 47°11' W 122°41'3 4.4
2017-Dec-08 14:56N 47°11' W 122°37'0 0.2
2017-Dec-08 14:29N 47°11' W 122°37'2 4.1
2017-Dec-08 14:00N 47°11' W 122°40'2 4.7
2017-Dec-08 13:30N 47°11' W 122°36'2 4.6
2017-Dec-08 13:00N 47°11' W 122°40'3 5.2
2017-Dec-08 12:30N 47°10' W 122°36'0 0.0
2017-Dec-08 05:44N 47°10' W 122°36'2 8.4
2017-Dec-08 05:29N 47°11' W 122°39'2 3.6
2017-Dec-08 05:00N 47°11' W 122°37'2 4.1
2017-Dec-08 04:30N 47°11' W 122°40'2 4.7
2017-Dec-08 04:00N 47°10' W 122°36'1 2.7
2017-Dec-08 03:30N 47°10' W 122°38'2 4.2
2017-Dec-08 03:00N 47°11' W 122°40'3 4.5
2017-Dec-08 02:22N 47°11' W 122°36'3 5.8
2017-Dec-08 01:52N 47°11' W 122°41'3 8.1
2017-Dec-08 01:29N 47°10' W 122°36'2 3.6
2017-Dec-08 01:00N 47°11' W 122°39'0 0.5
2017-Dec-08 00:30N 47°11' W 122°38'1 1.2
2017-Dec-08 00:00N 47°11' W 122°38'0 0.8
2017-Dec-07 23:30N 47°11' W 122°38'0 0.3
2017-Dec-07 23:00N 47°11' W 122°38'1 1.0
2017-Dec-07 22:30N 47°11' W 122°39'2 3.5
2017-Dec-07 22:00N 47°10' W 122°36'0 0.0
2017-Dec-07 21:30N 47°10' W 122°36'1 2.4
2017-Dec-07 20:58N 47°10' W 122°38'2 4.8
2017-Dec-07 20:30N 47°11' W 122°41'3 6.0
2017-Dec-07 20:00N 47°10' W 122°36'1 1.5
2017-Dec-07 19:29N 47°11' W 122°37'2 4.0
2017-Dec-07 19:00N 47°11' W 122°40'2 4.0
2017-Dec-07 18:29N 47°11' W 122°37'3 5.6
2017-Dec-07 18:00N 47°11' W 122°41'3 6.0
2017-Dec-07 17:30N 47°10' W 122°36'3 5.8
2017-Dec-07 17:00N 47°11' W 122°40'2 4.7
2017-Dec-07 16:30N 47°11' W 122°37'0 0.8
2017-Dec-07 16:00N 47°11' W 122°38'2 3.1
2017-Dec-07 15:29N 47°11' W 122°40'2 4.7
2017-Dec-07 15:00N 47°11' W 122°37'1 2.5
2017-Dec-07 14:30N 47°11' W 122°38'0 0.8
2017-Dec-07 14:00N 47°11' W 122°38'1 1.7
2017-Dec-07 13:30N 47°11' W 122°37'1 1.6
2017-Dec-07 12:57N 47°11' W 122°39'2 3.7
2017-Dec-07 12:30N 47°10' W 122°36'0 0.0
2017-Dec-07 05:26N 47°10' W 122°36'3 6.9
2017-Dec-07 05:00N 47°11' W 122°41'3 5.9
2017-Dec-07 04:30N 47°10' W 122°36'3 5.3
2017-Dec-07 04:00N 47°11' W 122°40'2 3.9
2017-Dec-07 03:30N 47°10' W 122°38'2 4.6
2017-Dec-07 03:00N 47°11' W 122°41'3 6.0
2017-Dec-07 02:30N 47°10' W 122°36'3 5.9
2017-Dec-07 02:00N 47°11' W 122°40'3 5.8
2017-Dec-07 01:30N 47°10' W 122°36'1 2.6
2017-Dec-07 01:00N 47°11' W 122°38'0 1.0
2017-Dec-07 00:30N 47°11' W 122°39'1 1.1
2017-Dec-07 00:00N 47°11' W 122°38'1 1.0
2017-Dec-06 23:30N 47°11' W 122°39'0 0.8
2017-Dec-06 23:00N 47°11' W 122°38'0 0.7
2017-Dec-06 22:30N 47°11' W 122°39'2 2.9
2017-Dec-06 21:55N 47°10' W 122°36'0 0.0
2017-Dec-06 21:29N 47°10' W 122°36'1 2.5
2017-Dec-06 21:00N 47°10' W 122°38'  
Track history (hours):
 
Tides and Currents Weather Stations Pressure Air Temp Water Temp Dewpoint Dewpoint Depression Visibility Wind Speed Wind Dir Waves Ship Positions

Christine Anderson

Owner: PIERCE, COUNTY OF, TACOMA, WA. More information available from US FCC via Universal Licensing System and Coast Guard Vessel Documentation Center.

Last reported at 2017-Dec-16 20:18 UTC. Time now 2017-Dec-16 20:46 UTC.
Position N 47°11' W 122°41'.

Length 60 m; draft 3 m.

Type: Passenger vessel. MMSI: 366659730.

Date/timePositionNaut miles runAvg speedWind from/ knotsBaromVisibWave heightAir tempDewpointWater temp
2017-Dec-16 20:18N 47°11' W 122°41'310.2
2017-Dec-16 20:00N 47°10' W 122°36'0 0.0
2017-Dec-16 19:30N 47°10' W 122°36'0 0.0
2017-Dec-16 19:00N 47°10' W 122°36'3 4.3
2017-Dec-16 18:18N 47°11' W 122°41'310.4
2017-Dec-16 18:00N 47°10' W 122°36'3 5.9
2017-Dec-16 17:29N 47°11' W 122°41'3 6.2
2017-Dec-16 17:00N 47°11' W 122°36'3 5.7
2017-Dec-16 16:30N 47°11' W 122°40'3 6.0
2017-Dec-16 16:00N 47°10' W 122°36'3 3.2
2017-Dec-16 15:10N 47°11' W 122°40'2 9.9
2017-Dec-16 14:59N 47°10' W 122°38'1 2.5
2017-Dec-16 14:30N 47°11' W 122°36'3 5.4
2017-Dec-16 14:00N 47°11' W 122°40'3 5.6
2017-Dec-16 13:30N 47°10' W 122°36'0 0.0
2017-Dec-16 07:05N 47°10' W 122°36'0 2.0
2017-Dec-16 07:00N 47°11' W 122°36'3 3.9
2017-Dec-16 06:15N 47°11' W 122°40'310.7
2017-Dec-16 05:59N 47°10' W 122°36'0 0.0
2017-Dec-16 05:30N 47°10' W 122°36'2 3.0
2017-Dec-16 04:57N 47°11' W 122°39'1 1.7
2017-Dec-16 04:31N 47°11' W 122°38'0 0.7
2017-Dec-16 04:00N 47°11' W 122°37'1 2.0
2017-Dec-16 03:30N 47°10' W 122°38'2 3.7
2017-Dec-16 02:56N 47°11' W 122°40'3 6.9
2017-Dec-16 02:30N 47°10' W 122°36'3 5.8
2017-Dec-16 02:00N 47°11' W 122°40'3 5.9
2017-Dec-16 01:30N 47°10' W 122°36'1 2.2
2017-Dec-16 01:00N 47°11' W 122°38'0 0.7
2017-Dec-16 00:30N 47°11' W 122°38'0 0.1
2017-Dec-16 00:00N 47°11' W 122°38'0 0.3
2017-Dec-15 23:30N 47°11' W 122°38'2 2.0
2017-Dec-15 22:38N 47°11' W 122°41'1 9.4
2017-Dec-15 22:29N 47°11' W 122°39'2 3.4
2017-Dec-15 22:00N 47°10' W 122°36'0 0.0
2017-Dec-15 21:31N 47°10' W 122°36'1 2.1
2017-Dec-15 20:56N 47°10' W 122°38'2 4.2
2017-Dec-15 20:24N 47°11' W 122°41'3 7.8
2017-Dec-15 20:00N 47°10' W 122°36'0 0.1
2017-Dec-15 19:30N 47°10' W 122°36'0 0.0
2017-Dec-15 19:01N 47°10' W 122°36'3 5.8
2017-Dec-15 18:31N 47°11' W 122°40'3 5.8
2017-Dec-15 18:01N 47°10' W 122°36'3 4.9
2017-Dec-15 17:24N 47°11' W 122°41'3 7.9
2017-Dec-15 17:01N 47°11' W 122°36'3 4.9
2017-Dec-15 16:24N 47°11' W 122°41'3 7.6
2017-Dec-15 16:00N 47°10' W 122°36'3 6.0
2017-Dec-15 15:31N 47°11' W 122°40'2 4.1
2017-Dec-15 14:59N 47°10' W 122°38'1 3.0
2017-Dec-15 14:30N 47°11' W 122°36'3 5.2
2017-Dec-15 14:00N 47°11' W 122°40'3 5.0
2017-Dec-15 13:30N 47°11' W 122°36'3 5.2
2017-Dec-15 13:01N 47°11' W 122°40'3 5.1
2017-Dec-15 12:29N 47°10' W 122°36'0 0.0
2017-Dec-15 05:29N 47°10' W 122°36'3 5.7
2017-Dec-15 04:58N 47°11' W 122°40'3 6.4
2017-Dec-15 04:30N 47°10' W 122°36'3 6.0
2017-Dec-15 04:00N 47°11' W 122°41'3 2.0
2017-Dec-15 02:30N 47°10' W 122°36'1 0.6
2017-Dec-15 01:00N 47°11' W 122°38'1 1.3
2017-Dec-15 00:29N 47°11' W 122°39'1 0.2
2017-Dec-14 18:23N 47°11' W 122°40'3 7.8
2017-Dec-14 18:00N 47°10' W 122°36'3 4.7
2017-Dec-14 17:22N 47°11' W 122°41'3 8.4
2017-Dec-14 17:00N 47°10' W 122°36'3 4.5
2017-Dec-14 16:21N 47°11' W 122°41'3 8.9
2017-Dec-14 16:00N 47°10' W 122°36'1 1.2
2017-Dec-14 14:59N 47°10' W 122°38'1 2.8
2017-Dec-14 14:30N 47°11' W 122°36'3 5.2
2017-Dec-14 14:00N 47°11' W 122°40'3 5.2
2017-Dec-14 13:30N 47°11' W 122°36'3 5.1
2017-Dec-14 13:00N 47°11' W 122°40'3 5.3
2017-Dec-14 12:30N 47°10' W 122°36'0 0.0
2017-Dec-14 05:33N 47°10' W 122°36'0 0.0
2017-Dec-14 05:30N 47°10' W 122°36'3 5.8
2017-Dec-14 05:00N 47°11' W 122°40'3 5.9
2017-Dec-14 04:30N 47°10' W 122°36'3 5.8
2017-Dec-14 03:59N 47°11' W 122°40'2 4.5
2017-Dec-14 03:29N 47°10' W 122°38'2 4.6
2017-Dec-14 03:00N 47°11' W 122°41'3 6.2
2017-Dec-14 02:30N 47°10' W 122°36'3 6.0
2017-Dec-14 02:00N 47°11' W 122°41'3 6.1
2017-Dec-14 01:30N 47°10' W 122°36'2 4.2
2017-Dec-14 01:00N 47°11' W 122°39'2 3.5
2017-Dec-14 00:28N 47°11' W 122°36'1 2.9
2017-Dec-14 00:00N 47°11' W 122°38'0 1.0
2017-Dec-13 23:30N 47°11' W 122°38'0 0.1
2017-Dec-13 23:00N 47°11' W 122°38'0 1.0
2017-Dec-13 22:30N 47°11' W 122°39'2 3.4
2017-Dec-13 22:00N 47°10' W 122°36'0 0.0
2017-Dec-13 21:30N 47°10' W 122°36'1 2.3
2017-Dec-13 21:00N 47°10' W 122°38'2 3.4
2017-Dec-13 20:19N 47°11' W 122°41'3 9.9
2017-Dec-13 20:00N 47°10' W 122°36'0 0.1
2017-Dec-13 19:30N 47°10' W 122°36'0 0.0
2017-Dec-13 19:00N 47°10' W 122°36'3 4.8
2017-Dec-13 18:24N 47°11' W 122°40'3 7.7
2017-Dec-13 18:00N 47°10' W 122°36'3 4.7
2017-Dec-13 17:23N 47°11' W 122°40'3 7.8
2017-Dec-13 17:00N 47°10' W 122°36'3 4.7
2017-Dec-13 16:23N 47°11' W 122°40'3 7.9
2017-Dec-13 16:00N 47°10' W 122°36'3 4.7
2017-Dec-13 15:22N 47°11' W 122°41'2 5.9
2017-Dec-13 14:59N 47°10' W 122°38'1 2.8
2017-Dec-13 14:30N 47°11' W 122°36'3 5.1
2017-Dec-13 14:00N 47°11' W 122°40'2 3.6
2017-Dec-13 13:28N 47°11' W 122°37'2 4.2
2017-Dec-13 13:00N 47°11' W 122°40'3 5.3
2017-Dec-13 12:30N 47°10' W 122°36'0 0.0
2017-Dec-13 05:34N 47°10' W 122°36'0 0.0
2017-Dec-13 05:30N 47°10' W 122°36'3 5.5
2017-Dec-13 04:58N 47°11' W 122°40'3 5.8
2017-Dec-13 04:29N 47°11' W 122°36'1 1.9
2017-Dec-13 03:55N 47°11' W 122°38'1 2.3
2017-Dec-13 03:30N 47°10' W 122°38'2 4.1
2017-Dec-13 02:59N 47°11' W 122°41'3 6.4
2017-Dec-13 02:30N 47°10' W 122°36'3 5.6
2017-Dec-13 01:58N 47°11' W 122°41'3 6.6
2017-Dec-13 01:30N 47°10' W 122°36'2 5.0
2017-Dec-13 01:00N 47°11' W 122°40'2 3.9
2017-Dec-13 00:30N 47°11' W 122°37'1 2.1
2017-Dec-13 00:00N 47°11' W 122°38'1 1.2
2017-Dec-12 23:29N 47°11' W 122°38'0 1.0
2017-Dec-12 23:00N 47°11' W 122°38'0 0.3
2017-Dec-12 22:29N 47°11' W 122°38'1 2.6
2017-Dec-12 22:00N 47°10' W 122°36'0 0.0
2017-Dec-12 21:30N 47°10' W 122°36'1 1.9
2017-Dec-12 20:56N 47°10' W 122°38'2 3.8
2017-Dec-12 20:19N 47°11' W 122°41'3 9.8
2017-Dec-12 20:00N 47°10' W 122°36'0 0.1
2017-Dec-12 19:30N 47°10' W 122°36'0 0.0
2017-Dec-12 19:00N 47°10' W 122°36'3 6.0
2017-Dec-12 18:30N 47°11' W 122°41'3 6.1
2017-Dec-12 18:00N 47°10' W 122°36'3 4.9
2017-Dec-12 17:23N 47°11' W 122°41'3 7.9
2017-Dec-12 17:00N 47°10' W 122°36'3 4.5
2017-Dec-12 16:21N 47°11' W 122°41'3 8.8
2017-Dec-12 16:00N 47°10' W 122°36'3 5.8
2017-Dec-12 15:29N 47°11' W 122°41'2 4.6
2017-Dec-12 15:00N 47°10' W 122°38'1 2.4
2017-Dec-12 14:30N 47°11' W 122°37'2 4.8
2017-Dec-12 14:00N 47°11' W 122°40'3 5.1
2017-Dec-12 13:30N 47°11' W 122°36'3 4.9
2017-Dec-12 13:00N 47°11' W 122°40'3 5.5
2017-Dec-12 12:30N 47°10' W 122°36'0 0.0
2017-Dec-12 05:32N 47°10' W 122°36'0 0.0
2017-Dec-12 05:30N 47°10' W 122°36'3 5.8
2017-Dec-12 05:00N 47°11' W 122°40'3 5.9
2017-Dec-12 04:30N 47°10' W 122°36'2 4.9
2017-Dec-12 04:00N 47°11' W 122°40'2 3.5
2017-Dec-12 03:30N 47°10' W 122°38'2 4.3
2017-Dec-12 02:59N 47°11' W 122°41'3 6.2
2017-Dec-12 02:30N 47°10' W 122°36'3 6.0
2017-Dec-12 02:00N 47°11' W 122°41'3 6.2
2017-Dec-12 01:30N 47°10' W 122°36'1 2.8
2017-Dec-12 01:00N 47°11' W 122°38'0 0.4
2017-Dec-12 00:30N 47°11' W 122°39'1 1.3
2017-Dec-12 00:00N 47°11' W 122°38'1 1.3
2017-Dec-11 23:30N 47°11' W 122°39'1 1.4
2017-Dec-11 23:00N 47°11' W 122°38'1 1.4
2017-Dec-11 22:30N 47°11' W 122°39'2 3.4
2017-Dec-11 22:00N 47°10' W 122°36'0 0.0
2017-Dec-11 21:30N 47°10' W 122°36'1 1.6
2017-Dec-11 20:59N 47°10' W 122°37'2 5.0
2017-Dec-11 20:30N 47°11' W 122°41'3 6.1
2017-Dec-11 20:00N 47°10' W 122°36'0 0.0
2017-Dec-11 19:30N 47°10' W 122°36'0 0.0
2017-Dec-11 19:00N 47°10' W 122°36'3 5.7
2017-Dec-11 18:28N 47°11' W 122°41'3 6.5
2017-Dec-11 18:00N 47°10' W 122°36'3 4.1
2017-Dec-11 17:18N 47°11' W 122°40'310.0
2017-Dec-11 17:00N 47°10' W 122°36'3 6.0
2017-Dec-11 16:30N 47°11' W 122°41'3 6.1
2017-Dec-11 16:00N 47°10' W 122°36'3 4.7
2017-Dec-11 15:22N 47°11' W 122°41'2 6.0
2017-Dec-11 15:00N 47°10' W 122°38'1 2.6
2017-Dec-11 14:29N 47°11' W 122°37'2 4.8
2017-Dec-11 14:00N 47°11' W 122°40'2 4.1
2017-Dec-11 13:30N 47°11' W 122°37'1 1.4
2017-Dec-11 13:00N 47°11' W 122°38'1 3.1
2017-Dec-11 12:30N 47°10' W 122°36'0 0.0
2017-Dec-11 05:31N 47°10' W 122°36'0 0.0
2017-Dec-11 05:30N 47°10' W 122°36'3 5.4
2017-Dec-11 04:57N 47°11' W 122°41'3 6.8
2017-Dec-11 04:30N 47°10' W 122°36'3 5.7
2017-Dec-11 03:59N 47°11' W 122°41'3 6.4
2017-Dec-11 03:30N 47°10' W 122°36'3 6.1
2017-Dec-11 03:00N 47°11' W 122°41'3 6.1
2017-Dec-11 02:31N 47°10' W 122°36'3 5.8
2017-Dec-11 02:00N 47°11' W 122°40'3 5.7
2017-Dec-11 01:30N 47°10' W 122°36'1 2.1
2017-Dec-11 01:00N 47°11' W 122°38'1 1.6
2017-Dec-11 00:30N 47°11' W 122°39'1 1.7
2017-Dec-11 00:00N 47°11' W 122°38'1 1.1
2017-Dec-10 23:29N 47°11' W 122°38'0 0.7
2017-Dec-10 22:59N 47°11' W 122°38'1 1.2
2017-Dec-10 22:30N 47°11' W 122°39'2 3.6
2017-Dec-10 22:00N 47°10' W 122°36'0 0.0
2017-Dec-10 21:30N 47°10' W 122°36'0 0.6
2017-Dec-10 21:00N 47°11' W 122°37'3 3.7
2017-Dec-10 20:17N 47°11' W 122°41'310.6
2017-Dec-10 20:00N 47°10' W 122°36'0 0.0
2017-Dec-10 19:30N 47°10' W 122°36'0 0.0
2017-Dec-10 19:00N 47°10' W 122°36'3 5.8
2017-Dec-10 18:30N 47°11' W 122°40'3 5.8
2017-Dec-10 18:01N 47°11' W 122°36'3 4.2
2017-Dec-10 17:17N 47°11' W 122°41'311.1
2017-Dec-10 17:00N 47°11' W 122°36'3 5.9
2017-Dec-10 16:30N 47°11' W 122°41'3 6.1
2017-Dec-10 16:00N 47°11' W 122°36'3 5.8
2017-Dec-10 15:30N 47°11' W 122°40'2 4.2
2017-Dec-10 15:00N 47°10' W 122°38'1 2.3
2017-Dec-10 14:30N 47°10' W 122°36'0 0.0
2017-Dec-10 07:07N 47°10' W 122°36'0 3.0
2017-Dec-10 07:00N 47°11' W 122°36'3 3.9
2017-Dec-10 06:19N 47°11' W 122°40'3 8.9
2017-Dec-10 06:00N 47°10' W 122°36'0 0.0
2017-Dec-10 05:30N 47°10' W 122°36'3 5.8
2017-Dec-10 04:59N 47°11' W 122°41'3 6.2
2017-Dec-10 04:30N 47°11' W 122°36'2 3.2
2017-Dec-10 04:00N 47°11' W 122°39'1 2.5
2017-Dec-10 03:30N 47°10' W 122°38'2 4.3
2017-Dec-10 03:00N 47°11' W 122°41'3 6.1
2017-Dec-10 02:30N 47°10' W 122°36'3 5.8
2017-Dec-10 02:00N 47°11' W 122°40'3 5.7
2017-Dec-10 01:30N 47°10' W 122°36'1 2.4
2017-Dec-10 00:58N 47°11' W 122°38'0 0.8
2017-Dec-10 00:30N 47°11' W 122°38'1 1.1
2017-Dec-09 23:59N 47°11' W 122°39'1 2.5
2017-Dec-09 23:30N 47°11' W 122°37'1 1.2
2017-Dec-09 23:00N 47°11' W 122°38'0 0.7
2017-Dec-09 22:30N 47°11' W 122°39'2 3.6
2017-Dec-09 22:00N 47°10' W 122°36'0 0.0
2017-Dec-09 21:30N 47°10' W 122°36'1 1.5
2017-Dec-09 21:00N 47°10' W 122°37'2 4.9
2017-Dec-09 20:30N 47°11' W 122°41'3 5.9
2017-Dec-09 20:00N 47°10' W 122°36'0 0.1
2017-Dec-09 19:30N 47°10' W 122°36'0 0.0
2017-Dec-09 19:00N 47°10' W 122°36'3 5.9
2017-Dec-09 18:30N 47°11' W 122°40'3 5.9
2017-Dec-09 18:00N 47°10' W 122°36'3 5.9
2017-Dec-09 17:30N 47°11' W 122°40'3 5.9
2017-Dec-09 17:00N 47°10' W 122°36'3 5.9
2017-Dec-09 16:30N 47°11' W 122°41'3 6.0
2017-Dec-09 16:00N 47°10' W 122°36'3 6.0
2017-Dec-09 15:30N 47°11' W 122°40'2 4.4
2017-Dec-09 15:00N 47°10' W 122°38'1 2.4
2017-Dec-09 14:30N 47°10' W 122°36'3 5.9
2017-Dec-09 14:00N 47°11' W 122°40'3 5.9
2017-Dec-09 13:30N 47°10' W 122°36'0 0.0
2017-Dec-09 07:11N 47°10' W 122°36'1 4.1
2017-Dec-09 06:59N 47°10' W 122°37'2 4.8
2017-Dec-09 06:30N 47°11' W 122°40'3 5.8
2017-Dec-09 06:00N 47°11' W 122°36'1 1.0
2017-Dec-09 05:28N 47°11' W 122°37'1 2.0
2017-Dec-09 05:00N 47°11' W 122°38'1 1.3
2017-Dec-09 04:30N 47°11' W 122°38'1 1.8
2017-Dec-09 04:00N 47°11' W 122°37'1 2.1
2017-Dec-09 03:30N 47°10' W 122°38'2 4.3
2017-Dec-09 02:59N 47°11' W 122°41'3 6.3
2017-Dec-09 02:30N 47°10' W 122°36'3 5.7
2017-Dec-09 02:00N 47°11' W 122°40'3 5.7
2017-Dec-09 01:30N 47°11' W 122°36'1 2.6
2017-Dec-09 01:01N 47°11' W 122°38'1 1.2
2017-Dec-09 00:30N 47°11' W 122°38'0 0.7
2017-Dec-08 23:59N 47°11' W 122°39'1 1.8
2017-Dec-08 23:30N 47°11' W 122°38'0 0.5
2017-Dec-08 23:00N 47°11' W 122°38'1 1.2
2017-Dec-08 22:30N 47°11' W 122°39'2 3.5
2017-Dec-08 22:00N 47°10' W 122°36'0 0.0
2017-Dec-08 21:30N 47°10' W 122°36'1 1.9
2017-Dec-08 20:57N 47°10' W 122°38'2 3.9
2017-Dec-08 20:21N 47°11' W 122°41'3 8.4
2017-Dec-08 19:59N 47°10' W 122°36'0 0.0
2017-Dec-08 19:30N 47°10' W 122°36'0 0.0
2017-Dec-08 19:00N 47°10' W 122°36'3 5.9
2017-Dec-08 18:30N 47°11' W 122°41'3 6.2
2017-Dec-08 18:01N 47°10' W 122°36'3 5.8
2017-Dec-08 17:29N 47°11' W 122°41'3 6.3
2017-Dec-08 17:00N 47°10' W 122°36'3 5.6
2017-Dec-08 16:28N 47°11' W 122°41'3 6.6
2017-Dec-08 16:00N 47°10' W 122°36'3 6.0
2017-Dec-08 15:30N 47°11' W 122°41'3 4.4
2017-Dec-08 14:56N 47°11' W 122°37'0 0.2
2017-Dec-08 14:29N 47°11' W 122°37'2 4.1
2017-Dec-08 14:00N 47°11' W 122°40'2 4.7
2017-Dec-08 13:30N 47°11' W 122°36'2 4.6
2017-Dec-08 13:00N 47°11' W 122°40'3 5.2
2017-Dec-08 12:30N 47°10' W 122°36'0 0.0
2017-Dec-08 05:44N 47°10' W 122°36'2 8.4
2017-Dec-08 05:29N 47°11' W 122°39'2 3.6
2017-Dec-08 05:00N 47°11' W 122°37'2 4.1
2017-Dec-08 04:30N 47°11' W 122°40'2 4.7
2017-Dec-08 04:00N 47°10' W 122°36'1 2.7
2017-Dec-08 03:30N 47°10' W 122°38'2 4.2
2017-Dec-08 03:00N 47°11' W 122°40'3 4.5
2017-Dec-08 02:22N 47°11' W 122°36'3 5.8
2017-Dec-08 01:52N 47°11' W 122°41'3 8.1
2017-Dec-08 01:29N 47°10' W 122°36'2 3.6
2017-Dec-08 01:00N 47°11' W 122°39'0 0.5
2017-Dec-08 00:30N 47°11' W 122°38'1 1.2
2017-Dec-08 00:00N 47°11' W 122°38'0 0.8
2017-Dec-07 23:30N 47°11' W 122°38'0 0.3
2017-Dec-07 23:00N 47°11' W 122°38'1 1.0
2017-Dec-07 22:30N 47°11' W 122°39'2 3.5
2017-Dec-07 22:00N 47°10' W 122°36'0 0.0
2017-Dec-07 21:30N 47°10' W 122°36'1 2.4
2017-Dec-07 20:58N 47°10' W 122°38'2 4.8
2017-Dec-07 20:30N 47°11' W 122°41'3 6.0
2017-Dec-07 20:00N 47°10' W 122°36'1 1.5
2017-Dec-07 19:29N 47°11' W 122°37'2 4.0
2017-Dec-07 19:00N 47°11' W 122°40'2 4.0
2017-Dec-07 18:29N 47°11' W 122°37'3 5.6
2017-Dec-07 18:00N 47°11' W 122°41'3 6.0
2017-Dec-07 17:30N 47°10' W 122°36'3 5.8
2017-Dec-07 17:00N 47°11' W 122°40'2 4.7
2017-Dec-07 16:30N 47°11' W 122°37'0 0.8
2017-Dec-07 16:00N 47°11' W 122°38'2 3.1
2017-Dec-07 15:29N 47°11' W 122°40'2 4.7
2017-Dec-07 15:00N 47°11' W 122°37'1 2.5
2017-Dec-07 14:30N 47°11' W 122°38'0 0.8
2017-Dec-07 14:00N 47°11' W 122°38'1 1.7
2017-Dec-07 13:30N 47°11' W 122°37'1 1.6
2017-Dec-07 12:57N 47°11' W 122°39'2 3.7
2017-Dec-07 12:30N 47°10' W 122°36'0 0.0
2017-Dec-07 05:26N 47°10' W 122°36'3 6.9
2017-Dec-07 05:00N 47°11' W 122°41'3 5.9
2017-Dec-07 04:30N 47°10' W 122°36'3 5.3
2017-Dec-07 04:00N 47°11' W 122°40'2 3.9
2017-Dec-07 03:30N 47°10' W 122°38'2 4.6
2017-Dec-07 03:00N 47°11' W 122°41'3 6.0
2017-Dec-07 02:30N 47°10' W 122°36'3 5.9
2017-Dec-07 02:00N 47°11' W 122°40'3 5.8
2017-Dec-07 01:30N 47°10' W 122°36'1 2.6
2017-Dec-07 01:00N 47°11' W 122°38'0 1.0
2017-Dec-07 00:30N 47°11' W 122°39'1 1.1
2017-Dec-07 00:00N 47°11' W 122°38'1 1.0
2017-Dec-06 23:30N 47°11' W 122°39'0 0.8
2017-Dec-06 23:00N 47°11' W 122°38'0 0.7
2017-Dec-06 22:30N 47°11' W 122°39'2 2.9
2017-Dec-06 21:55N 47°10' W 122°36'0 0.0
2017-Dec-06 21:29N 47°10' W 122°36'1 2.5
2017-Dec-06 21:00N 47°10' W 122°38'  

Dump ship's entire track history